createdAt,value
2023-03-13T00:01:21.009Z,5.64
2023-03-13T00:04:08.050Z,5.64
2023-03-13T00:06:54.888Z,5.65
2023-03-13T00:09:41.748Z,5.63
2023-03-13T00:12:28.618Z,5.64
2023-03-13T00:15:15.505Z,5.63
2023-03-13T00:18:02.384Z,5.62
2023-03-13T00:20:50.640Z,5.62
2023-03-13T00:23:38.516Z,5.61
2023-03-13T00:26:26.681Z,5.61
2023-03-13T00:29:13.542Z,5.61
2023-03-13T00:32:01.072Z,5.60
2023-03-13T00:34:47.949Z,5.61
2023-03-13T00:37:34.862Z,5.60
2023-03-13T00:40:21.731Z,5.60
2023-03-13T00:43:08.586Z,5.61
2023-03-13T00:45:55.736Z,5.60
2023-03-13T00:48:42.687Z,5.61
2023-03-13T00:51:29.997Z,5.61
2023-03-13T00:54:16.974Z,5.61
2023-03-13T00:57:04.075Z,5.60
2023-03-13T00:59:50.929Z,5.60
2023-03-13T01:02:42.894Z,5.61
2023-03-13T01:05:29.811Z,5.62
2023-03-13T01:08:16.657Z,5.60
2023-03-13T01:11:12.268Z,5.61
2023-03-13T01:14:01.957Z,5.60
2023-03-13T01:16:48.893Z,5.60
2023-03-13T01:19:35.772Z,5.59
2023-03-13T01:22:22.712Z,5.60
2023-03-13T01:25:09.741Z,5.60
2023-03-13T01:27:56.683Z,5.60
2023-03-13T01:30:43.672Z,5.62
2023-03-13T01:33:30.522Z,5.61
2023-03-13T01:36:17.909Z,5.61
2023-03-13T01:39:05.935Z,5.61
2023-03-13T01:41:52.809Z,5.61
2023-03-13T01:44:57.077Z,5.62
2023-03-13T01:47:44.017Z,5.61
2023-03-13T01:50:30.964Z,5.61
2023-03-13T01:53:17.972Z,5.62
2023-03-13T01:56:08.075Z,5.57
2023-03-13T01:58:56.164Z,5.60
2023-03-13T02:01:44.693Z,5.61
2023-03-13T02:04:35.643Z,5.62
2023-03-13T02:07:27.965Z,5.62
2023-03-13T02:10:15.947Z,5.63
2023-03-13T02:13:03.228Z,5.62
2023-03-13T02:15:50.124Z,5.62
2023-03-13T02:18:38.043Z,5.62
2023-03-13T02:21:47.780Z,5.62
2023-03-13T02:25:03.870Z,5.62
2023-03-13T02:28:11.615Z,5.61
2023-03-13T02:30:58.820Z,5.61
2023-03-13T02:33:45.985Z,5.62
2023-03-13T02:36:32.949Z,5.62
2023-03-13T02:39:21.912Z,5.62
2023-03-13T02:42:09.080Z,5.62
2023-03-13T02:44:56.009Z,5.62
2023-03-13T02:47:43.765Z,5.63
2023-03-13T02:50:30.711Z,5.64
2023-03-13T02:53:17.752Z,5.64
2023-03-13T02:56:04.969Z,5.64
2023-03-13T02:58:51.827Z,5.65
2023-03-13T03:01:38.676Z,5.64
2023-03-13T03:04:26.501Z,5.63
2023-03-13T03:07:13.353Z,5.65
2023-03-13T03:10:00.201Z,5.66
2023-03-13T03:12:47.136Z,5.65
2023-03-13T03:15:33.946Z,5.65
2023-03-13T03:18:20.817Z,5.65
2023-03-13T03:21:08.194Z,5.64
2023-03-13T03:23:55.055Z,5.65
2023-03-13T03:26:41.942Z,5.63
2023-03-13T03:29:28.902Z,5.65
2023-03-13T03:32:15.842Z,5.65
2023-03-13T03:35:02.806Z,5.66
2023-03-13T03:37:49.679Z,5.66
2023-03-13T03:40:36.580Z,5.66
2023-03-13T03:43:23.476Z,5.66
2023-03-13T03:46:10.640Z,5.66
2023-03-13T03:48:57.658Z,5.66
2023-03-13T03:51:44.470Z,5.67
2023-03-13T03:54:31.419Z,5.66
2023-03-13T03:57:18.248Z,5.65
2023-03-13T04:00:07.777Z,5.67
2023-03-13T04:02:56.233Z,5.67
2023-03-13T04:05:43.434Z,5.68
2023-03-13T04:08:30.980Z,5.68
2023-03-13T04:11:17.967Z,5.69
2023-03-13T04:14:04.812Z,5.68
2023-03-13T04:16:51.681Z,5.70
2023-03-13T04:19:38.672Z,5.69
2023-03-13T04:22:25.572Z,5.71
2023-03-13T04:25:12.500Z,5.69
2023-03-13T04:27:59.366Z,5.70
2023-03-13T04:30:46.272Z,5.68
2023-03-13T04:33:33.273Z,5.70
2023-03-13T04:36:20.200Z,5.69
2023-03-13T04:39:07.013Z,5.70
2023-03-13T04:41:55.008Z,5.70
2023-03-13T04:44:43.655Z,5.70
2023-03-13T04:47:30.820Z,5.72
2023-03-13T04:50:17.764Z,5.71
2023-03-13T04:53:04.680Z,5.70
2023-03-13T04:55:51.588Z,5.71
2023-03-13T04:58:38.424Z,5.72
2023-03-13T05:01:25.349Z,5.72
2023-03-13T05:04:12.515Z,5.72
2023-03-13T05:06:59.408Z,5.71
2023-03-13T05:09:46.296Z,5.73
2023-03-13T05:12:33.192Z,5.71
2023-03-13T05:15:20.060Z,5.70
2023-03-13T05:18:06.992Z,5.71
2023-03-13T05:20:53.848Z,5.70
2023-03-13T05:23:40.700Z,5.69
2023-03-13T05:26:27.560Z,5.71
2023-03-13T05:29:14.382Z,5.71
2023-03-13T05:32:01.213Z,5.71
2023-03-13T05:34:48.044Z,5.72
2023-03-13T05:37:34.955Z,5.72
2023-03-13T05:40:21.913Z,5.73
2023-03-13T05:43:08.815Z,5.75
2023-03-13T05:45:55.735Z,5.74
2023-03-13T05:48:42.780Z,5.75
2023-03-13T05:51:29.630Z,5.74
2023-03-13T05:54:16.474Z,5.74
2023-03-13T05:57:03.469Z,5.74
2023-03-13T05:59:50.339Z,5.74
2023-03-13T06:02:37.175Z,5.74
2023-03-13T06:05:24.008Z,5.75
2023-03-13T06:08:10.893Z,5.73
2023-03-13T06:11:01.898Z,5.76
2023-03-13T06:13:48.703Z,5.76
2023-03-13T06:16:35.654Z,5.75
2023-03-13T06:19:24.405Z,5.77
2023-03-13T06:22:11.273Z,5.76
2023-03-13T06:24:58.452Z,5.76
2023-03-13T06:27:45.320Z,5.77
2023-03-13T06:30:32.150Z,5.78
2023-03-13T06:33:19.043Z,5.78
2023-03-13T06:36:18.844Z,5.79
2023-03-13T06:39:05.761Z,5.80
2023-03-13T06:41:52.640Z,5.82
2023-03-13T06:44:39.527Z,5.83
2023-03-13T06:47:26.502Z,5.85
2023-03-13T06:50:13.324Z,5.86
2023-03-13T06:53:02.561Z,5.87
2023-03-13T06:55:49.416Z,5.87
2023-03-13T06:58:36.742Z,5.88
2023-03-13T07:01:23.699Z,5.88
2023-03-13T07:04:13.045Z,5.89
2023-03-13T07:06:59.844Z,5.89
2023-03-13T07:09:46.649Z,5.90
2023-03-13T07:12:35.322Z,5.92
2023-03-13T07:15:22.136Z,5.92
2023-03-13T07:18:09.012Z,5.93
2023-03-13T07:20:58.111Z,5.93
2023-03-13T07:23:45.107Z,5.93
2023-03-13T07:26:32.151Z,5.94
2023-03-13T07:29:19.166Z,5.94
2023-03-13T07:32:06.752Z,5.96
2023-03-13T07:34:53.563Z,5.96
2023-03-13T07:37:40.568Z,5.96
2023-03-13T07:40:27.711Z,5.96
2023-03-13T07:43:14.556Z,5.98
2023-03-13T07:46:04.174Z,5.99
2023-03-13T07:48:52.590Z,6.02
2023-03-13T07:51:43.968Z,6.02
2023-03-13T07:54:31.312Z,6.03
2023-03-13T07:57:18.213Z,6.05
2023-03-13T08:00:09.967Z,6.06
2023-03-13T08:02:56.831Z,6.06
2023-03-13T08:05:43.762Z,6.08
2023-03-13T08:08:30.948Z,6.08
2023-03-13T08:11:27.958Z,6.09
2023-03-13T08:14:15.001Z,6.11
2023-03-13T08:17:01.941Z,6.11
2023-03-13T08:19:48.821Z,6.12
2023-03-13T08:22:41.235Z,6.14
2023-03-13T08:25:28.072Z,6.12
2023-03-13T08:28:14.881Z,6.14
2023-03-13T08:31:13.038Z,6.13
2023-03-13T08:34:00.194Z,6.15
2023-03-13T08:36:47.290Z,6.17
2023-03-13T08:39:34.211Z,6.20
2023-03-13T08:42:24.182Z,6.22
2023-03-13T08:45:11.279Z,6.24
2023-03-13T08:47:58.448Z,6.26
2023-03-13T08:50:45.298Z,6.29
2023-03-13T08:53:33.700Z,6.32
2023-03-13T08:56:22.799Z,6.33
2023-03-13T08:59:10.314Z,6.36
2023-03-13T09:01:57.538Z,6.38
2023-03-13T09:04:44.573Z,6.40
2023-03-13T09:07:31.563Z,6.43
2023-03-13T09:10:18.521Z,6.44
2023-03-13T09:13:05.868Z,6.46
2023-03-13T09:16:00.711Z,6.51
2023-03-13T09:18:48.002Z,6.53
2023-03-13T09:21:36.163Z,6.56
2023-03-13T09:24:23.038Z,6.59
2023-03-13T09:27:12.191Z,6.62
2023-03-13T09:29:59.190Z,6.65
2023-03-13T09:32:46.064Z,6.67
2023-03-13T09:35:33.279Z,6.68
2023-03-13T09:38:21.684Z,6.71
2023-03-13T09:41:17.730Z,6.74
2023-03-13T09:44:10.068Z,6.74
2023-03-13T09:47:11.233Z,6.77
2023-03-13T09:50:26.674Z,6.78
2023-03-13T09:53:17.175Z,6.80
2023-03-13T09:56:05.650Z,6.82
2023-03-13T09:58:59.371Z,6.85
2023-03-13T10:01:47.953Z,6.87
2023-03-13T10:04:49.129Z,6.91
2023-03-13T10:07:36.448Z,6.92
2023-03-13T10:10:48.967Z,6.91
2023-03-13T10:14:17.121Z,6.97
2023-03-13T10:17:10.249Z,6.98
2023-03-13T10:20:01.189Z,6.99
2023-03-13T10:22:59.557Z,6.99
2023-03-13T10:25:46.468Z,7.04
2023-03-13T10:28:33.444Z,7.07
2023-03-13T10:31:34.142Z,7.11
2023-03-13T10:34:21.046Z,7.16
2023-03-13T10:37:12.404Z,7.22
2023-03-13T10:40:27.809Z,7.28
2023-03-13T10:43:22.303Z,7.34
2023-03-13T10:46:09.391Z,7.40
2023-03-13T10:48:59.464Z,7.48
2023-03-13T10:51:50.517Z,7.54
2023-03-13T10:54:40.180Z,7.62
2023-03-13T10:57:32.493Z,7.68
2023-03-13T11:00:36.204Z,7.76
2023-03-13T11:03:33.520Z,7.82
2023-03-13T11:06:30.179Z,7.87
2023-03-13T11:09:17.937Z,7.92
2023-03-13T11:12:17.945Z,7.95
2023-03-13T11:15:13.944Z,7.97
2023-03-13T11:18:24.404Z,8.02
2023-03-13T11:21:20.254Z,8.06
2023-03-13T11:24:13.383Z,8.06
2023-03-13T11:27:06.703Z,8.09
2023-03-13T11:29:59.692Z,8.11
2023-03-13T11:32:54.381Z,8.16
2023-03-13T11:35:51.514Z,8.19
2023-03-13T11:38:44.842Z,8.21
2023-03-13T11:41:52.452Z,8.23
2023-03-13T11:44:55.604Z,8.27
2023-03-13T11:48:20.984Z,8.30
2023-03-13T11:51:45.732Z,8.32
2023-03-13T11:54:46.230Z,8.34
2023-03-13T11:58:00.725Z,8.35
2023-03-13T12:00:54.142Z,8.38
2023-03-13T12:03:58.093Z,8.40
2023-03-13T12:06:50.820Z,8.43
2023-03-13T12:09:42.996Z,8.45
2023-03-13T12:12:35.218Z,8.49
2023-03-13T12:15:28.600Z,8.49
2023-03-13T12:18:15.344Z,8.54
2023-03-13T12:21:05.586Z,8.57
2023-03-13T12:24:06.438Z,8.60
2023-03-13T12:26:57.466Z,8.63
2023-03-13T12:30:02.204Z,8.70
2023-03-13T12:32:58.100Z,8.77
2023-03-13T12:35:51.181Z,8.88
2023-03-13T12:38:41.896Z,9.02
2023-03-13T12:41:34.239Z,9.18
2023-03-13T12:44:21.110Z,9.31
2023-03-13T12:47:34.503Z,9.41
2023-03-13T12:50:38.394Z,9.52
2023-03-13T12:53:35.529Z,9.61
2023-03-13T12:56:34.398Z,9.68
2023-03-13T12:59:36.566Z,9.76
2023-03-13T13:02:25.725Z,9.81
2023-03-13T13:05:19.769Z,9.85
2023-03-13T13:08:22.273Z,9.89
2023-03-13T13:11:37.290Z,9.93
2023-03-13T13:14:24.063Z,9.96
2023-03-13T13:17:10.874Z,10.00
2023-03-13T13:20:00.201Z,10.03
2023-03-13T13:22:48.204Z,10.05
2023-03-13T13:25:35.805Z,10.09
2023-03-13T13:28:27.558Z,10.13
2023-03-13T13:31:54.831Z,10.19
2023-03-13T13:35:02.466Z,10.25
2023-03-13T13:37:49.804Z,10.29
2023-03-13T13:40:37.081Z,10.32
2023-03-13T13:43:24.881Z,10.36
2023-03-13T13:46:41.234Z,10.44
2023-03-13T13:49:36.272Z,10.50
2023-03-13T13:52:50.235Z,10.56
2023-03-13T13:55:40.188Z,10.61
2023-03-13T13:58:33.414Z,10.66
2023-03-13T14:01:20.608Z,10.71
2023-03-13T14:04:23.806Z,10.76
2023-03-13T14:07:16.918Z,10.80
2023-03-13T14:10:22.406Z,10.89
2023-03-13T14:13:13.975Z,10.94
2023-03-13T14:16:23.007Z,10.98
2023-03-13T14:19:35.808Z,11.03
2023-03-13T14:22:22.938Z,11.06
2023-03-13T14:25:09.803Z,11.10
2023-03-13T14:27:56.823Z,11.14
2023-03-13T14:30:44.630Z,11.17
2023-03-13T14:33:40.430Z,11.21
2023-03-13T14:36:30.170Z,11.23
2023-03-13T14:39:20.121Z,11.27
2023-03-13T14:42:11.419Z,11.32
2023-03-13T14:44:59.744Z,11.36
2023-03-13T14:47:46.821Z,11.38
2023-03-13T14:50:35.061Z,11.41
2023-03-13T14:53:22.690Z,11.45
2023-03-13T14:56:12.991Z,11.48
2023-03-13T14:59:16.027Z,11.52
2023-03-13T15:02:14.227Z,11.53
2023-03-13T15:05:07.450Z,11.56
2023-03-13T15:07:54.907Z,11.59
2023-03-13T15:10:42.395Z,11.61
2023-03-13T15:13:38.429Z,11.63
2023-03-13T15:16:26.887Z,11.65
2023-03-13T15:19:13.865Z,11.67
2023-03-13T15:22:00.794Z,11.69
2023-03-13T15:25:03.347Z,11.72
2023-03-13T15:27:55.217Z,11.71
2023-03-13T15:30:43.524Z,11.76
2023-03-13T15:33:30.880Z,11.76
2023-03-13T15:36:17.755Z,11.79
2023-03-13T15:39:10.015Z,11.80
2023-03-13T15:41:56.988Z,11.82
2023-03-13T15:44:43.878Z,11.83
2023-03-13T15:47:31.012Z,11.86
2023-03-13T15:50:19.945Z,11.89
2023-03-13T15:53:17.969Z,11.91
2023-03-13T15:56:15.376Z,11.94
2023-03-13T15:59:02.631Z,11.95
2023-03-13T16:01:49.909Z,11.94
2023-03-13T16:04:37.850Z,11.99
2023-03-13T16:07:25.205Z,12.01
2023-03-13T16:10:20.102Z,12.02
2023-03-13T16:13:08.816Z,12.04
2023-03-13T16:15:56.689Z,12.04
2023-03-13T16:18:46.848Z,12.07
2023-03-13T16:21:34.790Z,12.09
2023-03-13T16:24:22.567Z,12.10
2023-03-13T16:27:19.859Z,12.12
2023-03-13T16:30:14.209Z,12.14
2023-03-13T16:33:01.208Z,12.14
2023-03-13T16:35:48.173Z,12.16
2023-03-13T16:38:35.057Z,12.16
2023-03-13T16:41:23.767Z,12.17
2023-03-13T16:44:10.638Z,12.18
2023-03-13T16:47:05.551Z,12.19
2023-03-13T16:49:52.766Z,12.20
2023-03-13T16:52:39.601Z,12.20
2023-03-13T16:55:31.514Z,12.21
2023-03-13T16:58:18.340Z,12.21
2023-03-13T17:01:06.346Z,12.21
2023-03-13T17:03:53.672Z,12.22
2023-03-13T17:06:42.533Z,12.22
2023-03-13T17:09:31.829Z,12.23
2023-03-13T17:12:19.386Z,12.23
2023-03-13T17:15:06.823Z,12.24
2023-03-13T17:17:54.203Z,12.23
2023-03-13T17:20:41.306Z,12.25
2023-03-13T17:23:28.549Z,12.23
2023-03-13T17:26:21.224Z,12.24
2023-03-13T17:29:10.691Z,12.23
2023-03-13T17:31:57.702Z,12.22
2023-03-13T17:34:44.659Z,12.23
2023-03-13T17:37:31.661Z,12.23
2023-03-13T17:40:27.473Z,12.20
2023-03-13T17:43:14.485Z,12.20
2023-03-13T17:46:01.397Z,12.19
2023-03-13T17:48:50.262Z,12.17
2023-03-13T17:51:37.337Z,12.16
2023-03-13T17:54:24.239Z,12.16
2023-03-13T17:57:15.250Z,12.18
2023-03-13T18:00:02.216Z,12.15
2023-03-13T18:02:55.252Z,12.14
2023-03-13T18:05:42.545Z,12.16
2023-03-13T18:08:29.411Z,12.15
2023-03-13T18:11:17.435Z,12.15
2023-03-13T18:14:05.596Z,12.16
2023-03-13T18:16:57.204Z,12.17
2023-03-13T18:19:44.669Z,12.17
2023-03-13T18:22:31.593Z,12.15
2023-03-13T18:25:19.449Z,12.16
2023-03-13T18:28:08.922Z,12.17
2023-03-13T18:30:55.780Z,12.16
2023-03-13T18:33:42.960Z,12.17
2023-03-13T18:36:30.962Z,12.17
2023-03-13T18:39:18.671Z,12.16
2023-03-13T18:42:07.432Z,12.18
2023-03-13T18:44:56.812Z,12.18
2023-03-13T18:47:52.891Z,12.16
2023-03-13T18:50:45.278Z,12.15
2023-03-13T18:53:32.561Z,12.15
2023-03-13T18:56:24.624Z,12.16
2023-03-13T18:59:18.716Z,12.14
2023-03-13T19:02:16.506Z,12.13
2023-03-13T19:05:03.724Z,12.13
2023-03-13T19:07:50.564Z,12.11
2023-03-13T19:10:38.599Z,12.10
2023-03-13T19:13:25.479Z,12.07
2023-03-13T19:16:30.640Z,12.07
2023-03-13T19:19:22.075Z,12.07
2023-03-13T19:22:10.629Z,12.07
2023-03-13T19:24:59.975Z,12.06
2023-03-13T19:27:48.238Z,12.04
2023-03-13T19:30:35.138Z,12.03
2023-03-13T19:33:22.397Z,12.00
2023-03-13T19:36:11.967Z,11.99
2023-03-13T19:38:59.166Z,11.98
2023-03-13T19:41:48.454Z,11.99
2023-03-13T19:44:35.982Z,11.98
2023-03-13T19:47:22.815Z,11.97
2023-03-13T19:50:17.178Z,11.96
2023-03-13T19:53:04.010Z,11.94
2023-03-13T19:55:50.857Z,11.94
2023-03-13T19:58:37.806Z,11.92
2023-03-13T20:01:24.840Z,11.91
2023-03-13T20:04:12.193Z,11.91
2023-03-13T20:06:59.370Z,11.89
2023-03-13T20:09:46.226Z,11.89
2023-03-13T20:12:34.838Z,11.86
2023-03-13T20:15:21.799Z,11.85
2023-03-13T20:18:08.745Z,11.85
2023-03-13T20:20:55.700Z,11.84
2023-03-13T20:23:43.728Z,11.84
2023-03-13T20:26:30.610Z,11.81
2023-03-13T20:29:17.639Z,11.80
2023-03-13T20:32:05.934Z,11.77
2023-03-13T20:34:52.827Z,11.76
2023-03-13T20:37:40.418Z,11.75
2023-03-13T20:40:28.074Z,11.75
2023-03-13T20:43:14.942Z,11.74
2023-03-13T20:46:02.177Z,11.74
2023-03-13T20:48:49.399Z,11.75
2023-03-13T20:51:36.318Z,11.75
2023-03-13T20:54:23.380Z,11.75
2023-03-13T20:57:10.193Z,11.77
2023-03-13T20:59:57.060Z,11.78
2023-03-13T21:02:44.004Z,11.79
2023-03-13T21:05:30.953Z,11.78
2023-03-13T21:08:17.785Z,11.79
2023-03-13T21:11:11.724Z,11.79
2023-03-13T21:13:58.580Z,11.78
2023-03-13T21:16:45.403Z,11.79
2023-03-13T21:19:34.079Z,11.77
2023-03-13T21:22:21.681Z,11.77
2023-03-13T21:25:12.213Z,11.77
2023-03-13T21:27:59.168Z,11.76
2023-03-13T21:30:46.004Z,11.76
2023-03-13T21:33:32.880Z,11.76
2023-03-13T21:36:21.231Z,11.75
2023-03-13T21:39:09.122Z,11.74
2023-03-13T21:41:56.011Z,11.74
2023-03-13T21:44:42.934Z,11.73
2023-03-13T21:47:31.453Z,11.74
2023-03-13T21:53:10.114Z,11.72
2023-03-13T21:55:57.039Z,11.73
2023-03-13T21:58:45.416Z,11.72
2023-03-13T22:01:32.254Z,11.71
2023-03-13T22:04:19.111Z,11.70
2023-03-13T22:07:06.421Z,11.71
2023-03-13T22:09:53.288Z,11.70
2023-03-13T22:12:40.157Z,11.69
2023-03-13T22:15:27.037Z,11.70
2023-03-13T22:18:15.036Z,11.68
2023-03-13T22:21:02.087Z,11.69
2023-03-13T22:23:48.950Z,11.68
2023-03-13T22:26:35.821Z,11.67
2023-03-13T22:29:24.091Z,11.67
2023-03-13T22:32:10.965Z,11.65
2023-03-13T22:34:57.981Z,11.67
2023-03-13T22:37:45.513Z,11.66
2023-03-13T22:40:33.343Z,11.65
2023-03-13T22:43:20.155Z,11.65
2023-03-13T22:46:07.329Z,11.65
2023-03-13T22:48:54.173Z,11.64
2023-03-13T22:51:41.045Z,11.65
2023-03-13T22:54:27.917Z,11.64
2023-03-13T22:57:14.724Z,11.64
2023-03-13T23:00:01.679Z,11.63
2023-03-13T23:02:49.548Z,11.64
2023-03-13T23:05:39.118Z,11.62
2023-03-13T23:08:26.020Z,11.62
2023-03-13T23:11:15.877Z,11.62
2023-03-13T23:14:03.172Z,11.61
2023-03-13T23:16:50.423Z,11.61
2023-03-13T23:19:37.276Z,11.61
2023-03-13T23:22:28.098Z,11.60
2023-03-13T23:25:15.189Z,11.59
2023-03-13T23:28:02.041Z,11.59
2023-03-13T23:30:48.969Z,11.58
2023-03-13T23:33:35.855Z,11.57
2023-03-13T23:36:22.725Z,11.57
2023-03-13T23:39:09.565Z,11.57
2023-03-13T23:41:56.467Z,11.55
2023-03-13T23:44:43.358Z,11.55
2023-03-13T23:47:30.223Z,11.55
2023-03-13T23:50:17.278Z,11.54
2023-03-13T23:53:04.116Z,11.54
2023-03-13T23:55:59.386Z,11.54
2023-03-13T23:58:46.230Z,11.54
